Time;durP1;ratioP1;P1;durP2;ratioP2;P2;SDS_P1;SDS_P2;PMS_P1;PMS_P2;Temp;Humidity;BMP_temperature;BMP_pressure;BME280_temperature;BME280_humidity;BME280_pressure;Samples;Min_cycle;Max_cycle;Signal;HPM_P1;HPM_P2
2022/05/31 00:01:54;;;;;;;7.88;3.55;;;;;;;18.88;63.15;95447.38;5084698;28;20028;-81
2022/05/31 00:04:20;;;;;;;5.38;3.45;;;;;;;18.88;63.25;95444.66;5084099;28;20024;-83
2022/05/31 00:06:45;;;;;;;6.35;3.60;;;;;;;18.69;64.15;95445.75;5083784;28;20069;-81
2022/05/31 00:09:11;;;;;;;6.60;3.10;;;;;;;18.52;64.77;95446.38;5084591;28;20028;-81
2022/05/31 00:11:37;;;;;;;6.80;3.47;;;;;;;18.45;65.17;95445.63;5084661;28;20078;-82
2022/05/31 00:14:04;;;;;;;11.98;3.95;;;;;;;18.51;64.99;95433.84;5086162;28;20032;-80
2022/05/31 00:16:30;;;;;;;8.60;3.80;;;;;;;18.57;64.98;95449.22;5084125;28;20628;-81
2022/05/31 00:18:55;;;;;;;7.60;3.58;;;;;;;18.64;64.72;95449.16;5088126;28;20024;-81
2022/05/31 00:21:22;;;;;;;6.18;3.83;;;;;;;18.67;64.72;95454.13;5088813;28;20029;-80
2022/05/31 00:23:48;;;;;;;6.60;4.18;;;;;;;18.60;64.32;95453.38;5070849;28;20024;-81
2022/05/31 00:26:13;;;;;;;6.63;3.63;;;;;;;18.53;64.90;95442.59;5088109;28;20023;-80
2022/05/31 00:28:39;;;;;;;7.18;3.53;;;;;;;18.60;64.70;95451.50;5087309;28;20464;-80
2022/05/31 00:31:04;;;;;;;6.18;3.53;;;;;;;18.67;64.45;95450.59;5089587;28;20085;-81
2022/05/31 00:33:29;;;;;;;7.03;3.78;;;;;;;18.67;64.48;95447.88;5053601;28;20101;-81
2022/05/31 00:35:55;;;;;;;7.80;3.55;;;;;;;18.71;63.99;95449.06;5054051;28;20034;-81
2022/05/31 00:38:20;;;;;;;10.10;4.05;;;;;;;18.64;63.94;95444.56;5069921;28;20525;-81
2022/05/31 00:40:46;;;;;;;9.38;3.80;;;;;;;18.64;64.39;95441.00;5070912;28;20476;-81
2022/05/31 00:43:16;;;;;;;5.57;3.30;;;;;;;18.70;63.86;95444.72;5070106;28;20024;-81
2022/05/31 00:46:01;;;;;;;12.25;3.90;;;;;;;18.74;63.32;95452.16;5070998;28;20028;-82
2022/05/31 00:48:30;;;;;;;6.85;3.97;;;;;;;18.77;63.41;95448.16;5087880;28;20057;-80
2022/05/31 00:51:04;;;;;;;10.30;4.10;;;;;;;18.81;63.61;95441.22;5086226;28;20075;-81
2022/05/31 00:53:36;;;;;;;9.60;3.85;;;;;;;18.82;63.50;95451.03;5070782;28;20035;-80
2022/05/31 00:56:09;;;;;;;8.43;3.53;;;;;;;18.84;63.71;95448.91;5086521;28;20066;-81
2022/05/31 00:58:40;;;;;;;8.60;3.70;;;;;;;18.76;63.36;95450.06;5071160;28;20281;-81
2022/05/31 01:01:08;;;;;;;7.40;3.92;;;;;;;18.80;63.35;95455.84;5054313;28;20024;-82
2022/05/31 01:03:36;;;;;;;9.55;3.75;;;;;;;18.84;62.78;95453.50;5069658;28;20487;-80
2022/05/31 01:06:01;;;;;;;4.50;3.05;;;;;;;18.85;63.24;95447.84;5087437;28;20089;-81
2022/05/31 01:08:27;;;;;;;12.82;4.47;;;;;;;18.88;63.69;95452.81;5086357;28;20023;-81
2022/05/31 01:10:52;;;;;;;6.57;3.55;;;;;;;18.81;63.47;95452.09;5086908;28;20028;-82
2022/05/31 01:13:18;;;;;;;7.57;4.05;;;;;;;18.76;63.33;95458.22;5086109;28;20020;-82
2022/05/31 01:15:44;;;;;;;7.82;4.50;;;;;;;18.72;63.92;95453.44;5086764;28;20036;-81
2022/05/31 01:18:10;;;;;;;5.35;3.85;;;;;;;18.75;63.63;95455.69;5086581;28;20024;-81
2022/05/31 01:20:35;;;;;;;9.15;3.50;;;;;;;18.74;63.54;95464.91;5069869;28;20476;-80
2022/05/31 01:23:05;;;;;;;7.68;4.65;;;;;;;18.72;63.27;95458.88;5086838;28;20036;-83
2022/05/31 01:25:43;;;;;;;7.28;4.43;;;;;;;18.74;63.39;95462.19;5069526;28;20028;-80
2022/05/31 01:28:32;;;;;;;7.25;3.80;;;;;;;18.68;63.58;95463.13;5087412;28;20414;-83
2022/05/31 01:31:11;;;;;;;7.32;4.00;;;;;;;18.67;63.99;95459.56;5085780;28;20103;-81
2022/05/31 01:33:50;;;;;;;9.65;3.92;;;;;;;18.60;63.81;95451.50;5070393;28;20032;-80
2022/05/31 01:36:19;;;;;;;10.93;4.50;;;;;;;18.61;64.00;95450.44;5086735;28;20495;-81
2022/05/31 01:38:52;;;;;;;7.60;4.03;;;;;;;18.59;63.88;95460.69;5085693;28;20502;-81
2022/05/31 01:41:19;;;;;;;;;;;;;;;18.55;64.08;95462.22;5070845;28;20032;-81
2022/05/31 01:43:46;;;;;;;7.30;4.10;;;;;;;18.46;63.91;95452.72;5085473;28;19922;-81
2022/05/31 01:46:15;;;;;;;9.95;4.38;;;;;;;18.38;64.05;95457.38;5069517;28;20073;-82
2022/05/31 01:48:40;;;;;;;7.90;3.78;;;;;;;18.34;64.33;95453.47;5069922;28;20030;-81
2022/05/31 01:51:06;;;;;;;5.40;3.90;;;;;;;18.33;64.75;95456.41;5068670;28;20054;-81
2022/05/31 01:53:32;;;;;;;9.80;3.78;;;;;;;18.32;63.88;95461.00;5053029;28;20490;-82
2022/05/31 01:55:57;;;;;;;6.80;3.80;;;;;;;18.32;63.56;95462.88;5068570;28;20074;-81
2022/05/31 01:58:24;;;;;;;7.30;4.00;;;;;;;18.31;63.62;95461.22;5068898;28;20024;-82
2022/05/31 02:00:49;;;;;;;7.22;4.53;;;;;;;18.29;63.64;95464.19;5051621;28;20498;-81
2022/05/31 02:03:18;;;;;;;7.28;4.50;;;;;;;18.28;63.67;95463.34;5068903;28;20032;-81
2022/05/31 02:05:45;;;;;;;9.50;3.92;;;;;;;18.26;63.58;95470.06;5086937;28;20035;-83
2022/05/31 02:08:10;;;;;;;10.60;3.95;;;;;;;18.21;64.31;95465.31;5086872;28;20035;-82
2022/05/31 02:10:36;;;;;;;8.13;4.10;;;;;;;18.12;63.93;95464.75;5086087;28;20024;-82
2022/05/31 02:13:01;;;;;;;5.47;4.10;;;;;;;18.00;64.72;95461.09;5085689;28;20118;-81
2022/05/31 02:15:27;;;;;;;10.43;4.43;;;;;;;17.96;64.55;95471.56;5069063;28;20035;-82
2022/05/31 02:17:52;;;;;;;7.60;3.97;;;;;;;17.92;64.74;95476.63;5084913;28;20020;-82
2022/05/31 02:20:18;;;;;;;7.82;4.07;;;;;;;17.81;65.17;95482.75;5069078;28;20503;-82
2022/05/31 02:22:43;;;;;;;8.40;4.35;;;;;;;17.78;65.76;95478.59;5086096;28;20028;-81
2022/05/31 02:25:09;;;;;;;9.23;4.47;;;;;;;17.76;66.08;95478.00;5087061;28;20024;-82
2022/05/31 02:27:35;;;;;;;11.43;4.60;;;;;;;17.77;65.39;95479.66;5085162;28;20036;-81
2022/05/31 02:30:00;;;;;;;6.63;4.05;;;;;;;17.72;65.66;95482.19;5085418;28;20111;-82
2022/05/31 02:32:26;;;;;;;7.55;4.45;;;;;;;17.76;66.05;95488.84;5085356;28;20028;-81
2022/05/31 02:34:51;;;;;;;7.80;4.50;;;;;;;17.66;66.13;95493.94;5084568;28;20024;-81
2022/05/31 02:37:18;;;;;;;6.70;4.03;;;;;;;17.71;66.36;95485.13;5068562;28;20044;-81
2022/05/31 02:39:43;;;;;;;8.32;4.60;;;;;;;17.72;66.15;95492.19;5066884;28;20605;-82
2022/05/31 02:42:09;;;;;;;11.88;4.63;;;;;;;17.60;66.19;95492.94;5068116;28;20036;-82
2022/05/31 02:44:34;;;;;;;7.63;4.40;;;;;;;17.36;67.03;95500.81;5084056;28;20032;-82
2022/05/31 02:47:01;;;;;;;9.75;4.30;;;;;;;17.36;67.41;95498.09;5086376;28;20034;-82
2022/05/31 02:49:26;;;;;;;7.28;4.68;;;;;;;17.37;67.54;95496.22;5084946;28;20028;-81
2022/05/31 02:51:51;;;;;;;9.63;4.10;;;;;;;17.42;67.23;95499.09;5068098;28;20016;-81
2022/05/31 02:54:18;;;;;;;8.70;4.07;;;;;;;17.47;67.43;95506.59;5086992;28;20028;-80
2022/05/31 02:56:43;;;;;;;5.78;4.07;;;;;;;17.48;67.59;95498.22;5084090;28;20891;-81
2022/05/31 02:59:09;;;;;;;8.73;4.72;;;;;;;17.50;66.83;95503.44;5051493;28;20258;-82
2022/05/31 03:01:36;;;;;;;10.68;4.43;;;;;;;17.47;67.24;95507.44;5066927;28;20031;-81
2022/05/31 03:04:02;;;;;;;10.73;5.07;;;;;;;17.50;67.19;95511.56;5084885;28;20532;-80
2022/05/31 03:06:28;;;;;;;8.95;4.82;;;;;;;17.51;67.24;95516.78;5067312;28;20039;-83
2022/05/31 03:08:53;;;;;;;11.07;4.82;;;;;;;17.54;66.89;95518.19;5067749;28;20013;-81
2022/05/31 03:11:41;;;;;;;6.82;4.55;;;;;;;17.51;66.77;95513.22;5067958;28;20036;-81
2022/05/31 03:14:16;;;;;;;10.88;4.45;;;;;;;17.52;67.00;95510.28;5080073;28;20040;-82
2022/05/31 03:16:42;;;;;;;10.82;4.78;;;;;;;17.53;67.11;95519.25;5068869;28;20061;-81
2022/05/31 03:19:12;;;;;;;7.28;4.82;;;;;;;17.52;67.87;95517.59;5067351;28;20027;-82
2022/05/31 03:21:45;;;;;;;9.40;4.88;;;;;;;17.53;67.71;95524.69;5084559;28;20035;-81
2022/05/31 03:24:15;;;;;;;12.00;4.88;;;;;;;17.51;67.72;95524.06;5084376;28;20074;-81
2022/05/31 03:26:41;;;;;;;14.82;5.60;;;;;;;17.48;67.75;95529.94;5083960;28;20024;-81
2022/05/31 03:29:07;;;;;;;8.35;4.90;;;;;;;17.48;66.66;95529.94;5051393;28;20513;-81
2022/05/31 03:31:33;;;;;;;7.07;4.95;;;;;;;17.47;66.52;95539.97;5066478;28;20024;-81
2022/05/31 03:33:58;;;;;;;11.60;5.05;;;;;;;17.48;66.51;95538.91;5067733;28;20020;-81
2022/05/31 03:36:24;;;;;;;10.75;5.10;;;;;;;17.55;66.36;95536.16;5084601;28;20044;-80
2022/05/31 03:38:49;;;;;;;9.43;5.18;;;;;;;17.50;66.59;95536.81;5067366;28;20032;-82
2022/05/31 03:41:14;;;;;;;19.30;6.22;;;;;;;17.57;66.60;95539.50;5084008;28;20035;-80
2022/05/31 03:43:42;;;;;;;11.30;5.28;;;;;;;17.59;66.70;95539.25;5084789;28;20036;-82
2022/05/31 03:46:11;;;;;;;8.73;5.50;;;;;;;17.58;66.19;95548.44;5084560;28;20016;-80
2022/05/31 03:48:37;;;;;;;8.55;4.50;;;;;;;17.57;66.32;95538.66;5084642;28;20027;-81
2022/05/31 03:51:04;;;;;;;9.52;4.63;;;;;;;17.60;66.14;95538.19;5085129;28;20024;-81
2022/05/31 03:53:29;;;;;;;9.93;4.82;;;;;;;17.60;66.09;95543.63;5070569;28;20358;-83
2022/05/31 03:55:55;;;;;;;9.27;4.95;;;;;;;17.66;66.49;95537.31;5071379;28;20096;-82
2022/05/31 03:58:20;;;;;;;9.35;5.13;;;;;;;17.67;66.34;95539.81;5070927;28;20024;-81
2022/05/31 04:00:46;;;;;;;9.27;5.35;;;;;;;17.70;66.59;95545.84;5071090;28;20375;-83
2022/05/31 04:03:12;;;;;;;11.73;5.00;;;;;;;17.71;65.85;95544.81;5071681;28;20095;-80
2022/05/31 04:05:37;;;;;;;9.88;5.07;;;;;;;17.64;65.58;95545.69;5088451;28;20020;-83
2022/05/31 04:08:06;;;;;;;9.77;4.65;;;;;;;17.73;65.29;95550.84;5092073;28;20020;-81
2022/05/31 04:10:32;;;;;;;9.90;4.88;;;;;;;17.71;65.42;95551.06;5087159;28;20157;-81
2022/05/31 04:12:58;;;;;;;9.88;5.35;;;;;;;17.69;66.18;95546.88;5089399;28;20453;-81
2022/05/31 04:15:23;;;;;;;6.05;4.90;;;;;;;17.72;66.04;95544.56;5088729;28;20093;-82
2022/05/31 04:17:48;;;;;;;10.48;5.57;;;;;;;17.82;66.19;95552.22;5087593;28;20024;-81
2022/05/31 04:20:14;;;;;;;7.15;5.20;;;;;;;17.81;66.02;95558.72;5087454;28;20027;-80
2022/05/31 04:22:39;;;;;;;8.65;4.38;;;;;;;17.82;65.70;95565.78;5087543;28;20387;-81
2022/05/31 04:25:05;;;;;;;6.10;5.15;;;;;;;17.78;65.75;95567.28;5087631;28;20035;-82
2022/05/31 04:27:30;;;;;;;8.35;5.35;;;;;;;17.91;65.49;95567.19;5053508;28;20099;-81
2022/05/31 04:29:56;;;;;;;12.05;5.15;;;;;;;18.00;65.13;95565.03;5071268;28;20017;-82
2022/05/31 04:32:21;;;;;;;9.65;4.57;;;;;;;18.13;65.49;95569.56;5086806;28;20047;-82
2022/05/31 04:34:47;;;;;;;8.15;4.78;;;;;;;18.36;65.00;95573.53;5087623;28;20032;-82
2022/05/31 04:37:12;;;;;;;10.60;4.65;;;;;;;18.46;64.33;95578.44;5069789;28;20040;-82
2022/05/31 04:39:38;;;;;;;10.05;4.75;;;;;;;18.62;64.32;95577.03;5070629;28;20138;-80
2022/05/31 04:42:03;;;;;;;8.30;5.00;;;;;;;18.76;64.22;95572.31;5070092;28;20494;-81
2022/05/31 04:44:29;;;;;;;7.07;5.00;;;;;;;18.84;63.67;95578.50;5086849;28;20020;-80
2022/05/31 04:46:54;;;;;;;9.45;4.90;;;;;;;18.97;63.52;95580.22;5070044;28;20032;-82
2022/05/31 04:49:20;;;;;;;7.80;4.93;;;;;;;19.03;63.58;95576.59;5087570;28;20054;-81
2022/05/31 04:51:46;;;;;;;8.45;4.85;;;;;;;19.23;63.04;95584.53;5087272;28;20073;-82
2022/05/31 04:54:11;;;;;;;9.27;5.00;;;;;;;19.22;62.91;95573.88;5068961;28;20024;-80
2022/05/31 04:56:37;;;;;;;12.07;5.18;;;;;;;19.12;63.28;95577.16;5070084;28;20028;-81
2022/05/31 04:59:02;;;;;;;8.50;4.93;;;;;;;19.27;63.02;95583.03;5087474;28;20028;-81
2022/05/31 05:01:28;;;;;;;14.10;5.63;;;;;;;19.45;63.01;95577.78;5053208;28;20042;-81
2022/05/31 05:03:53;;;;;;;10.88;5.85;;;;;;;19.61;62.14;95579.88;5068679;28;20039;-81
2022/05/31 05:06:19;;;;;;;11.02;5.65;;;;;;;19.72;61.76;95571.97;5085948;28;20028;-80
2022/05/31 05:08:45;;;;;;;17.40;6.00;;;;;;;19.84;61.32;95580.16;5070337;28;20032;-81
2022/05/31 05:11:15;;;;;;;14.43;6.60;;;;;;;19.93;61.34;95578.78;5085587;28;20035;-81
2022/05/31 05:13:41;;;;;;;11.57;5.35;;;;;;;19.98;60.99;95572.63;5069786;28;20020;-80
2022/05/31 05:16:07;;;;;;;13.63;5.53;;;;;;;20.10;60.38;95578.94;5085467;28;20093;-80
2022/05/31 05:18:32;;;;;;;12.35;6.00;;;;;;;20.25;60.73;95588.56;5069607;28;20024;-80
2022/05/31 05:20:59;;;;;;;9.00;5.10;;;;;;;20.36;60.33;95579.56;5087779;28;20031;-81
2022/05/31 05:23:25;;;;;;;6.90;5.13;;;;;;;20.49;60.13;95580.44;5087341;28;20055;-80
2022/05/31 05:25:51;;;;;;;10.27;6.28;;;;;;;20.63;59.41;95581.00;5087947;28;20078;-81
2022/05/31 05:31:00;;;;;;;6.65;5.10;;;;;;;20.70;59.96;95581.69;5088360;28;20030;-79
2022/05/31 05:33:27;;;;;;;13.20;6.07;;;;;;;20.70;60.40;95587.16;5085552;28;20038;-80
2022/05/31 05:35:52;;;;;;;9.63;6.10;;;;;;;20.83;59.57;95585.28;5086334;28;20112;-81
2022/05/31 05:38:18;;;;;;;9.80;5.88;;;;;;;20.96;59.06;95584.19;5085285;28;20052;-81
2022/05/31 05:40:43;;;;;;;11.10;6.38;;;;;;;21.07;58.66;95582.53;5052216;28;20027;-80
2022/05/31 05:43:09;;;;;;;12.20;5.90;;;;;;;21.15;58.36;95576.69;5085789;28;20036;-82
2022/05/31 05:45:35;;;;;;;14.15;5.93;;;;;;;21.28;58.37;95586.50;5068335;28;20024;-80
2022/05/31 05:48:00;;;;;;;8.27;6.32;;;;;;;21.38;57.87;95587.78;5069137;28;20077;-80
2022/05/31 05:50:26;;;;;;;10.45;6.57;;;;;;;21.47;57.21;95583.59;5051220;28;20946;-80
2022/05/31 05:52:58;;;;;;;13.20;7.53;;;;;;;21.52;56.71;95585.59;5085947;28;20406;-80
2022/05/31 05:55:24;;;;;;;10.30;5.68;;;;;;;21.56;56.50;95579.41;5068298;28;20510;-80
2022/05/31 05:57:49;;;;;;;12.45;6.25;;;;;;;21.57;55.81;95583.78;5085491;28;20134;-81
2022/05/31 06:00:15;;;;;;;14.02;7.05;;;;;;;21.55;55.99;95587.84;5085447;28;20391;-81
2022/05/31 06:02:41;;;;;;;17.02;6.93;;;;;;;21.58;56.44;95596.38;5084864;28;20443;-80
2022/05/31 06:05:10;;;;;;;13.65;6.70;;;;;;;21.65;57.14;95589.94;5085969;28;20036;-81
2022/05/31 06:07:46;;;;;;;16.85;6.63;;;;;;;21.83;56.71;95592.47;5068020;28;20130;-81
2022/05/31 06:10:13;;;;;;;21.35;7.35;;;;;;;21.78;56.14;95588.84;5085583;28;20226;-81
2022/05/31 06:12:40;;;;;;;18.45;6.78;;;;;;;21.96;56.24;95585.88;5084978;28;20463;-80
2022/05/31 06:15:08;;;;;;;12.77;7.10;;;;;;;22.10;56.10;95591.03;5084882;28;20027;-81
2022/05/31 06:17:40;;;;;;;14.98;6.53;;;;;;;22.11;56.32;95598.16;5085039;28;20032;-80
2022/05/31 06:20:06;;;;;;;13.87;6.27;;;;;;;22.06;56.40;95589.88;5051212;28;20482;-80
2022/05/31 06:22:32;;;;;;;15.40;5.85;;;;;;;21.92;55.67;95584.75;5051529;28;20270;-80
2022/05/31 06:24:58;;;;;;;11.82;6.10;;;;;;;21.57;56.57;95591.16;5084081;28;20035;-80
2022/05/31 06:27:23;;;;;;;12.55;5.28;;;;;;;21.77;56.10;95576.22;5068319;28;20482;-81
2022/05/31 06:29:49;;;;;;;14.55;4.95;;;;;;;21.40;56.22;95585.63;5084514;28;20059;-81
2022/05/31 06:32:16;;;;;;;8.52;4.60;;;;;;;21.43;56.15;95582.41;5086766;28;20258;-79
2022/05/31 06:34:41;;;;;;;14.93;4.97;;;;;;;21.39;56.49;95582.09;5068300;28;20031;-80
2022/05/31 06:37:09;;;;;;;11.02;5.90;;;;;;;21.43;56.70;95577.78;5084612;28;20020;-80
2022/05/31 06:39:35;;;;;;;9.30;5.57;;;;;;;21.43;57.26;95583.25;5068385;28;20047;-81
2022/05/31 06:42:01;;;;;;;11.27;5.43;;;;;;;21.48;57.16;95582.53;5085374;28;20021;-80
2022/05/31 06:44:26;;;;;;;8.68;4.72;;;;;;;21.59;55.41;95576.19;5084652;28;20034;-80
2022/05/31 06:46:52;;;;;;;10.98;4.88;;;;;;;21.64;54.48;95580.06;5085271;28;20032;-81
2022/05/31 06:49:17;;;;;;;6.45;4.47;;;;;;;21.72;55.19;95574.22;5086110;28;20020;-80
2022/05/31 06:57:11;;;;;;;9.45;5.60;;;;;;;21.80;55.93;95568.41;5086215;28;20031;-80
2022/05/31 06:59:37;;;;;;;11.05;6.20;;;;;;;21.89;56.38;95562.56;5084869;28;20024;-82
2022/05/31 07:02:05;;;;;;;13.15;5.85;;;;;;;21.96;55.79;95568.66;5084711;28;20497;-80
2022/05/31 07:04:34;;;;;;;8.93;5.53;;;;;;;22.42;56.07;95571.34;5050932;28;20085;-81
2022/05/31 07:07:00;;;;;;;10.77;6.00;;;;;;;22.56;55.66;95562.78;5084562;28;20063;-82
2022/05/31 07:09:26;;;;;;;11.77;5.72;;;;;;;22.75;55.56;95568.84;5067833;28;20111;-81
2022/05/31 07:11:51;;;;;;;13.38;5.95;;;;;;;22.97;54.69;95557.94;5084683;28;20103;-80
2022/05/31 07:14:16;;;;;;;8.93;5.60;;;;;;;23.13;53.36;95563.63;5067833;28;20039;-81
2022/05/31 07:16:42;;;;;;;13.05;5.80;;;;;;;23.06;54.31;95569.28;5084529;28;20077;-81
2022/05/31 07:19:07;;;;;;;10.32;5.20;;;;;;;23.04;54.05;95568.69;5085899;28;20031;-81
2022/05/31 07:21:33;;;;;;;11.40;5.18;;;;;;;23.18;53.46;95573.78;5066814;28;20024;-81
2022/05/31 07:23:58;;;;;;;11.40;5.32;;;;;;;23.13;54.53;95569.09;5085580;28;20035;-81
2022/05/31 07:26:24;;;;;;;8.85;4.88;;;;;;;23.37;53.53;95570.72;5083679;28;20061;-80
2022/05/31 07:28:49;;;;;;;9.35;5.00;;;;;;;23.41;53.49;95572.72;5084813;28;20020;-83
2022/05/31 07:31:15;;;;;;;10.52;5.55;;;;;;;23.28;54.11;95570.34;5085835;28;20024;-81
2022/05/31 07:33:40;;;;;;;7.82;5.15;;;;;;;22.93;54.52;95569.63;5084593;28;20020;-81
2022/05/31 07:36:07;;;;;;;17.70;5.47;;;;;;;23.12;53.77;95563.88;5085628;28;20024;-83
2022/05/31 07:38:33;;;;;;;14.15;5.40;;;;;;;23.37;54.23;95562.50;5083343;28;20056;-80
2022/05/31 07:40:59;;;;;;;9.77;4.90;;;;;;;23.17;53.23;95559.28;5067081;28;20043;-81
2022/05/31 07:43:24;;;;;;;7.28;4.47;;;;;;;23.19;53.53;95545.34;5083223;28;20047;-81
2022/05/31 07:45:58;;;;;;;9.13;5.32;;;;;;;23.24;54.50;95550.88;5083586;28;20024;-81
2022/05/31 07:48:23;;;;;;;10.98;5.22;;;;;;;23.07;54.43;95543.56;5068404;28;20271;-80
2022/05/31 07:50:50;;;;;;;9.20;5.00;;;;;;;23.07;53.97;95543.56;5066023;28;20078;-81
2022/05/31 07:53:15;;;;;;;8.48;4.70;;;;;;;22.78;53.67;95548.38;5085516;28;20025;-80
2022/05/31 07:55:40;;;;;;;10.38;4.97;;;;;;;22.92;53.63;95546.09;5082858;28;20027;-80
2022/05/31 08:00:49;;;;;;;8.65;4.38;;;;;;;23.65;52.71;95547.78;5084548;28;20055;-81
2022/05/31 08:03:15;;;;;;;9.80;4.97;;;;;;;23.82;54.08;95541.41;5083821;28;20032;-81
2022/05/31 08:05:40;;;;;;;10.93;4.88;;;;;;;23.36;52.19;95549.94;5083842;28;20032;-81
2022/05/31 08:08:07;;;;;;;12.35;5.90;;;;;;;23.49;52.19;95544.06;5066263;28;20075;-80
2022/05/31 08:10:33;;;;;;;10.18;5.00;;;;;;;23.82;54.46;95552.34;5084017;28;20020;-80
2022/05/31 08:12:58;;;;;;;14.75;5.57;;;;;;;24.13;51.65;95540.84;5083875;28;20065;-80
2022/05/31 08:15:24;;;;;;;11.88;5.00;;;;;;;24.14;51.64;95542.47;5083874;28;20069;-80
2022/05/31 08:17:49;;;;;;;12.77;4.22;;;;;;;23.85;51.82;95543.63;5084464;28;20024;-81
2022/05/31 08:20:17;;;;;;;9.88;4.45;;;;;;;23.60;51.61;95541.44;5084912;28;20073;-82
2022/05/31 08:22:44;;;;;;;8.65;4.07;;;;;;;23.23;51.69;95551.94;5067166;28;20024;-82
2022/05/31 08:25:10;;;;;;;10.00;4.22;;;;;;;23.27;50.73;95536.69;5082681;28;20058;-81
2022/05/31 08:27:36;;;;;;;11.07;4.32;;;;;;;23.49;50.12;95530.38;5083907;28;20024;-80
2022/05/31 08:30:03;;;;;;;6.10;4.38;;;;;;;23.43;50.75;95535.00;5082476;28;20047;-80
2022/05/31 08:32:29;;;;;;;8.90;4.30;;;;;;;23.62;51.06;95531.06;5067218;28;20189;-82
2022/05/31 08:34:55;;;;;;;9.25;4.10;;;;;;;23.77;49.78;95525.75;5065671;28;20537;-81
2022/05/31 08:37:20;;;;;;;9.55;4.40;;;;;;;24.23;48.88;95520.94;5084098;28;20337;-81
2022/05/31 08:39:46;;;;;;;6.13;4.28;;;;;;;24.31;48.77;95523.22;5069999;28;20020;-80
2022/05/31 08:42:14;;;;;;;6.80;3.60;;;;;;;24.05;49.30;95518.31;5053194;28;20406;-80
2022/05/31 08:44:47;;;;;;;14.13;4.45;;;;;;;24.07;50.67;95529.84;5070452;28;20632;-80
2022/05/31 08:47:36;;;;;;;10.90;4.22;;;;;;;24.33;50.31;95521.00;5086407;28;20035;-82
2022/05/31 08:53:24;;;;;;;8.98;4.28;;;;;;;24.61;48.62;95520.91;5074066;28;20575;-81
2022/05/31 08:58:56;;;;;;;12.40;4.22;;;;;;;24.95;46.46;95517.84;5073854;28;20030;-80
2022/05/31 09:01:27;;;;;;;8.00;3.90;;;;;;;24.44;46.69;95516.41;5086258;28;20502;-80
2022/05/31 09:03:55;;;;;;;9.52;3.65;;;;;;;24.52;47.07;95515.94;5069769;28;20024;-81
2022/05/31 09:06:25;;;;;;;9.52;3.83;;;;;;;24.78;47.44;95515.25;5070081;28;20034;-81
2022/05/31 09:09:32;;;;;;;7.70;4.05;;;;;;;24.68;46.66;95514.09;5069218;28;20727;-80
2022/05/31 09:12:17;;;;;;;10.40;3.20;;;;;;;24.96;46.43;95510.44;5052020;28;20112;-81
2022/05/31 09:14:54;;;;;;;8.25;4.45;;;;;;;25.24;43.85;95513.84;5069829;28;20036;-80
2022/05/31 09:17:22;;;;;;;6.45;3.28;;;;;;;25.29;42.52;95503.69;5087386;28;20403;-80
2022/05/31 09:19:57;;;;;;;7.20;3.05;;;;;;;25.21;44.74;95506.97;5086846;28;20122;-82
2022/05/31 09:22:23;;;;;;;10.80;3.88;;;;;;;25.24;44.89;95508.34;5085719;28;20409;-80
2022/05/31 09:24:48;;;;;;;6.97;3.25;;;;;;;25.39;45.57;95500.16;5086748;28;20471;-80
2022/05/31 09:27:14;;;;;;;8.80;2.88;;;;;;;25.44;39.82;95502.09;5085699;28;20028;-80
2022/05/31 09:29:58;;;;;;;6.22;2.55;;;;;;;25.67;38.21;95505.47;5087981;28;20028;-81
2022/05/31 09:33:06;;;;;;;6.40;2.38;;;;;;;25.74;39.88;95500.53;5087864;28;20413;-80
2022/05/31 09:35:54;;;;;;;7.60;2.33;;;;;;;25.69;35.87;95500.53;5085340;28;20081;-81
2022/05/31 09:38:48;;;;;;;6.28;2.33;;;;;;;25.76;36.58;95500.28;5086982;28;20427;-80
2022/05/31 09:41:47;;;;;;;9.00;2.38;;;;;;;25.73;35.31;95501.63;5086757;28;20287;-81
2022/05/31 09:44:15;;;;;;;5.30;1.85;;;;;;;25.75;37.16;95506.84;5082698;28;20123;-80
2022/05/31 09:46:56;;;;;;;4.65;1.98;;;;;;;25.79;37.48;95502.47;5087640;28;20024;-81
2022/05/31 09:49:33;;;;;;;7.20;2.30;;;;;;;25.80;40.63;95496.69;5069433;28;20111;-81
2022/05/31 09:51:58;;;;;;;11.10;3.00;;;;;;;25.57;41.12;95500.75;5085451;28;20020;-81
2022/05/31 09:57:18;;;;;;;5.90;2.50;;;;;;;25.99;41.66;95493.41;5085493;28;20055;-79
2022/05/31 09:59:47;;;;;;;5.88;2.50;;;;;;;25.94;40.70;95492.59;5070188;28;20021;-80
2022/05/31 10:02:35;;;;;;;6.75;3.40;;;;;;;25.67;42.32;95488.97;5069371;28;20038;-80
2022/05/31 10:05:09;;;;;;;6.03;2.83;;;;;;;25.35;42.67;95490.00;5085266;28;20024;-81
2022/05/31 10:07:37;;;;;;;7.60;3.08;;;;;;;25.67;43.96;95484.31;5087207;28;20066;-80
2022/05/31 10:10:07;;;;;;;12.75;3.35;;;;;;;25.92;43.17;95487.38;5086445;28;20027;-81
2022/05/31 10:12:34;;;;;;;6.57;2.78;;;;;;;26.01;44.18;95482.97;5085829;28;20031;-81
2022/05/31 10:15:03;;;;;;;12.02;3.03;;;;;;;26.24;43.33;95483.50;5052106;28;20032;-81
2022/05/31 10:17:37;;;;;;;6.50;2.92;;;;;;;26.25;41.86;95476.91;5068958;28;20095;-80
2022/05/31 10:20:18;;;;;;;15.68;3.28;;;;;;;26.39;42.78;95473.63;5087537;28;20031;-80
2022/05/31 10:23:11;;;;;;;6.68;3.47;;;;;;;26.36;41.40;95475.00;5085981;28;20032;-81
2022/05/31 10:25:39;;;;;;;;;;;;;;;26.33;41.63;95472.78;5085781;28;20544;-80
2022/05/31 10:28:12;;;;;;;9.45;3.30;;;;;;;26.38;42.51;95469.22;5086728;28;20454;-82
2022/05/31 10:30:38;;;;;;;13.77;3.78;;;;;;;26.37;41.51;95468.41;5084880;28;20162;-80
2022/05/31 10:33:03;;;;;;;11.18;3.22;;;;;;;26.16;41.98;95462.09;5085787;28;20024;-80
2022/05/31 10:35:33;;;;;;;7.25;2.63;;;;;;;26.05;41.31;95466.75;5085551;28;20031;-80
2022/05/31 10:38:26;;;;;;;7.40;3.00;;;;;;;26.40;41.70;95453.28;5069251;28;20028;-80
2022/05/31 10:40:54;;;;;;;6.38;2.60;;;;;;;26.47;40.55;95453.78;5050757;28;20048;-81
2022/05/31 10:43:27;;;;;;;4.25;2.30;;;;;;;26.58;39.65;95443.63;5068367;28;20071;-80
2022/05/31 10:45:53;;;;;;;9.77;3.70;;;;;;;26.07;40.29;95450.00;5084930;28;20100;-80
2022/05/31 10:48:19;;;;;;;10.38;3.22;;;;;;;26.02;41.22;95434.34;5084349;28;20460;-80
2022/05/31 10:51:09;;;;;;;7.20;2.40;;;;;;;26.42;39.38;95438.13;5085179;28;20066;-81
2022/05/31 10:53:50;;;;;;;10.77;2.97;;;;;;;26.35;39.70;95442.28;5068910;28;20035;-81
2022/05/31 10:56:37;;;;;;;5.82;2.10;;;;;;;26.25;38.71;95427.44;5086208;28;20115;-81
2022/05/31 10:59:17;;;;;;;9.50;2.92;;;;;;;26.15;39.38;95439.25;5068874;28;20062;-81
2022/05/31 11:01:56;;;;;;;5.68;2.40;;;;;;;26.10;40.03;95432.97;5082805;28;20443;-80
2022/05/31 11:05:03;;;;;;;10.75;2.70;;;;;;;26.31;38.88;95432.94;5085909;28;20035;-80
2022/05/31 11:14:18;;;;;;;6.22;2.33;;;;;;;26.66;37.75;95407.25;5084266;28;20117;-81
2022/05/31 11:17:00;;;;;;;6.78;2.58;;;;;;;26.43;38.13;95400.47;5086096;28;20089;-81
2022/05/31 11:19:34;;;;;;;7.25;2.55;;;;;;;26.46;39.77;95401.84;5084904;28;20022;-81
2022/05/31 11:22:08;;;;;;;11.73;2.88;;;;;;;26.74;40.65;95396.78;5085472;28;20028;-81
2022/05/31 11:24:46;;;;;;;7.63;2.30;;;;;;;26.93;38.60;95394.22;5084137;28;20446;-82
2022/05/31 11:27:30;;;;;;;6.95;2.45;;;;;;;27.00;36.85;95389.25;5084944;28;20032;-81
2022/05/31 11:30:05;;;;;;;6.55;2.03;;;;;;;27.05;36.03;95388.41;5084170;28;20111;-80
2022/05/31 11:32:52;;;;;;;7.68;2.50;;;;;;;26.94;35.18;95390.34;5084899;28;20020;-81
2022/05/31 11:35:20;;;;;;;5.25;1.88;;;;;;;26.69;34.93;95391.31;5083938;28;20105;-80
2022/05/31 11:37:57;;;;;;;4.50;2.28;;;;;;;26.52;35.41;95387.78;5085894;28;20051;-83
2022/05/31 11:40:59;;;;;;;6.15;1.95;;;;;;;26.34;35.45;95383.75;5067448;28;20059;-82
2022/05/31 11:43:46;;;;;;;6.80;2.38;;;;;;;26.25;35.76;95388.94;5085543;28;20039;-81
2022/05/31 11:46:15;;;;;;;5.90;2.75;;;;;;;26.25;36.79;95386.19;5085618;28;20089;-81
2022/05/31 11:48:54;;;;;;;6.10;2.20;;;;;;;26.55;36.58;95380.94;5084936;28;20095;-80
2022/05/31 11:51:37;;;;;;;6.72;2.35;;;;;;;26.83;36.57;95372.25;5084332;28;20150;-81
2022/05/31 11:54:12;;;;;;;5.05;2.00;;;;;;;27.15;37.70;95376.50;5084426;28;20089;-82
2022/05/31 11:57:04;;;;;;;3.53;2.00;;;;;;;27.36;37.53;95368.94;5085314;28;20038;-80
2022/05/31 11:59:40;;;;;;;4.53;1.60;;;;;;;27.48;38.02;95365.81;5085744;28;20032;-82
2022/05/31 12:02:17;;;;;;;3.60;1.70;;;;;;;27.43;35.43;95365.84;5082949;28;20060;-82
2022/05/31 12:04:57;;;;;;;4.13;1.70;;;;;;;27.47;34.36;95366.91;5084093;28;20024;-81
2022/05/31 12:07:31;;;;;;;20.35;2.88;;;;;;;27.32;34.59;95359.63;5067213;28;20035;-81
2022/05/31 12:10:00;;;;;;;4.93;2.00;;;;;;;27.49;34.55;95361.94;5083415;28;20543;-81